createdAt,value
2024-02-03T00:00:22.482Z,9.30
2024-02-03T00:02:49.737Z,9.20
2024-02-03T00:05:17.788Z,9.20
2024-02-03T00:07:45.022Z,9.20
2024-02-03T00:10:12.459Z,9.20
2024-02-03T00:12:39.664Z,9.30
2024-02-03T00:15:07.473Z,9.20
2024-02-03T00:17:34.849Z,9.10
2024-02-03T00:20:02.136Z,9.10
2024-02-03T00:22:29.307Z,9.10
2024-02-03T00:24:57.510Z,9.10
2024-02-03T00:27:24.707Z,9.20
2024-02-03T00:29:52.039Z,9.20
2024-02-03T00:32:19.201Z,9.20
2024-02-03T00:34:48.473Z,9.20
2024-02-03T00:37:15.885Z,9.10
2024-02-03T00:39:43.435Z,9.00
2024-02-03T00:42:11.118Z,9.00
2024-02-03T00:44:39.929Z,9.00
2024-02-03T00:47:08.072Z,9.00
2024-02-03T00:49:35.401Z,9.00
2024-02-03T00:52:03.040Z,9.00
2024-02-03T00:54:30.449Z,9.00
2024-02-03T00:56:58.279Z,9.00
2024-02-03T00:59:25.689Z,9.00
2024-02-03T01:01:53.017Z,9.00
2024-02-03T01:04:20.636Z,9.00
2024-02-03T01:06:48.224Z,9.00
2024-02-03T01:09:19.052Z,8.90
2024-02-03T01:11:46.583Z,8.90
2024-02-03T01:14:13.896Z,8.90
2024-02-03T01:16:41.119Z,8.90
2024-02-03T01:19:08.685Z,8.80
2024-02-03T01:21:36.044Z,8.80
2024-02-03T01:24:04.066Z,8.80
2024-02-03T01:26:31.442Z,8.80
2024-02-03T01:28:58.780Z,8.70
2024-02-03T01:31:25.916Z,8.70
2024-02-03T01:33:53.213Z,8.70
2024-02-03T01:36:21.086Z,8.70
2024-02-03T01:38:51.722Z,8.70
2024-02-03T01:41:19.666Z,8.70
2024-02-03T01:43:47.422Z,8.70
2024-02-03T01:46:16.193Z,8.70
2024-02-03T01:48:44.009Z,8.60
2024-02-03T01:51:13.171Z,8.70
2024-02-03T01:53:41.028Z,8.60
2024-02-03T01:56:08.509Z,8.60
2024-02-03T01:58:39.560Z,8.70
2024-02-03T02:01:07.982Z,8.70
2024-02-03T02:03:36.020Z,8.70
2024-02-03T02:06:04.057Z,8.70
2024-02-03T02:08:36.046Z,8.70
2024-02-03T02:11:03.911Z,8.70
2024-02-03T02:13:31.554Z,8.70
2024-02-03T02:15:59.068Z,8.80
2024-02-03T02:18:26.841Z,8.80
2024-02-03T02:20:54.388Z,8.80
2024-02-03T02:23:21.599Z,8.80
2024-02-03T02:25:48.932Z,8.70
2024-02-03T02:28:16.230Z,8.70
2024-02-03T02:30:43.632Z,8.80
2024-02-03T02:33:10.990Z,8.80
2024-02-03T02:35:38.345Z,8.80
2024-02-03T02:38:06.074Z,8.80
2024-02-03T02:40:33.354Z,8.80
2024-02-03T02:43:00.821Z,8.70
2024-02-03T02:45:27.974Z,8.70
2024-02-03T02:47:55.578Z,8.70
2024-02-03T02:50:22.857Z,8.70
2024-02-03T02:52:50.197Z,8.70
2024-02-03T02:55:17.533Z,8.60
2024-02-03T02:57:45.051Z,8.60
2024-02-03T03:00:13.184Z,8.50
2024-02-03T03:02:40.671Z,8.50
2024-02-03T03:05:13.512Z,8.50
2024-02-03T03:07:44.484Z,8.50
2024-02-03T03:10:12.072Z,8.60
2024-02-03T03:12:39.337Z,8.60
2024-02-03T03:15:07.225Z,8.60
2024-02-03T03:17:34.602Z,8.50
2024-02-03T03:20:02.433Z,8.50
2024-02-03T03:22:29.772Z,8.50
2024-02-03T03:24:57.053Z,8.50
2024-02-03T03:27:24.368Z,8.50
2024-02-03T03:29:52.307Z,8.40
2024-02-03T03:32:19.471Z,8.40
2024-02-03T03:34:47.304Z,8.40
2024-02-03T03:37:14.616Z,8.30
2024-02-03T03:39:42.123Z,8.40
2024-02-03T03:42:09.381Z,8.40
2024-02-03T03:44:36.747Z,8.40
2024-02-03T03:47:04.911Z,8.40
2024-02-03T03:49:34.402Z,8.40
2024-02-03T03:52:02.085Z,8.30
2024-02-03T03:54:29.587Z,8.30
2024-02-03T03:56:56.911Z,8.30
2024-02-03T03:59:24.276Z,8.30
2024-02-03T04:01:51.902Z,8.30
2024-02-03T04:04:20.393Z,8.30
2024-02-03T04:06:47.793Z,8.30
2024-02-03T04:09:15.799Z,8.30
2024-02-03T04:11:43.109Z,8.40
2024-02-03T04:14:10.516Z,8.40
2024-02-03T04:16:37.720Z,8.40
2024-02-03T04:19:05.424Z,8.40
2024-02-03T04:21:34.335Z,8.40
2024-02-03T04:24:01.991Z,8.40
2024-02-03T04:26:29.262Z,8.40
2024-02-03T04:28:56.594Z,8.40
2024-02-03T04:31:23.844Z,8.40
2024-02-03T04:33:51.355Z,8.30
2024-02-03T04:36:21.688Z,8.30
2024-02-03T04:38:49.015Z,8.30
2024-02-03T04:41:25.950Z,8.30
2024-02-03T04:43:53.299Z,8.30
2024-02-03T04:46:20.601Z,8.30
2024-02-03T04:48:49.063Z,8.20
2024-02-03T04:51:16.551Z,8.20
2024-02-03T04:53:44.038Z,8.20
2024-02-03T04:56:11.641Z,8.20
2024-02-03T04:58:39.159Z,8.20
2024-02-03T05:01:06.651Z,8.20
2024-02-03T05:03:34.381Z,8.20
2024-02-03T05:06:06.416Z,8.20
2024-02-03T05:08:35.772Z,8.20
2024-02-03T05:11:03.046Z,8.20
2024-02-03T05:13:30.677Z,8.10
2024-02-03T05:15:58.036Z,8.10
2024-02-03T05:18:25.531Z,8.10
2024-02-03T05:20:53.197Z,8.10
2024-02-03T05:23:20.939Z,8.10
2024-02-03T05:25:50.933Z,8.10
2024-02-03T05:28:19.801Z,8.10
2024-02-03T05:30:47.053Z,8.00
2024-02-03T05:33:14.536Z,8.00
2024-02-03T05:35:41.940Z,7.90
2024-02-03T05:38:09.280Z,7.90
2024-02-03T05:40:36.510Z,8.00
2024-02-03T05:43:03.967Z,8.10
2024-02-03T05:45:31.272Z,8.10
2024-02-03T05:47:58.837Z,8.20
2024-02-03T05:50:26.245Z,8.20
2024-02-03T05:52:54.512Z,8.20
2024-02-03T05:55:21.808Z,8.10
2024-02-03T05:57:54.239Z,8.10
2024-02-03T06:00:22.549Z,8.10
2024-02-03T06:02:49.948Z,8.10
2024-02-03T06:05:18.669Z,8.20
2024-02-03T06:07:45.868Z,8.20
2024-02-03T06:10:13.278Z,8.20
2024-02-03T06:12:40.663Z,8.20
2024-02-03T06:15:08.291Z,8.20
2024-02-03T06:17:36.328Z,8.20
2024-02-03T06:20:04.920Z,8.20
2024-02-03T06:22:32.197Z,8.30
2024-02-03T06:24:59.558Z,8.30
2024-02-03T06:27:26.805Z,8.40
2024-02-03T06:29:54.179Z,8.40
2024-02-03T06:32:22.668Z,8.50
2024-02-03T06:34:50.229Z,8.50
2024-02-03T06:37:17.652Z,8.60
2024-02-03T06:39:44.924Z,8.70
2024-02-03T06:42:12.316Z,8.70
2024-02-03T06:44:39.663Z,8.70
2024-02-03T06:47:07.070Z,8.80
2024-02-03T06:49:34.581Z,8.90
2024-02-03T06:52:02.023Z,8.90
2024-02-03T06:54:29.371Z,9.10
2024-02-03T06:56:57.171Z,9.20
2024-02-03T06:59:24.394Z,9.30
2024-02-03T07:01:52.046Z,9.30
2024-02-03T07:04:19.627Z,9.40
2024-02-03T07:06:47.079Z,9.40
2024-02-03T07:09:14.490Z,9.40
2024-02-03T07:11:52.849Z,9.50
2024-02-03T07:14:28.264Z,9.50
2024-02-03T07:16:55.528Z,9.60
2024-02-03T07:19:22.939Z,9.70
2024-02-03T07:21:50.828Z,9.80
2024-02-03T07:24:18.141Z,9.80
2024-02-03T07:26:45.369Z,9.90
2024-02-03T07:29:12.638Z,10.00
2024-02-03T07:31:40.083Z,10.10
2024-02-03T07:34:07.574Z,10.20
2024-02-03T07:36:35.024Z,10.20
2024-02-03T07:39:05.275Z,10.40
2024-02-03T07:41:32.612Z,10.50
2024-02-03T07:43:59.834Z,10.60
2024-02-03T07:46:27.131Z,10.70
2024-02-03T07:48:54.684Z,10.90
2024-02-03T07:51:22.282Z,11.00
2024-02-03T07:53:49.719Z,11.10
2024-02-03T07:56:16.937Z,11.20
2024-02-03T07:58:44.246Z,11.40
2024-02-03T08:01:11.594Z,11.50
2024-02-03T08:03:38.975Z,11.60
2024-02-03T08:06:08.339Z,11.70
2024-02-03T08:08:35.718Z,11.80
2024-02-03T08:11:02.919Z,11.90
2024-02-03T08:13:30.237Z,12.00
2024-02-03T08:15:57.479Z,12.10
2024-02-03T08:18:24.817Z,12.10
2024-02-03T08:20:52.287Z,12.20
2024-02-03T08:23:19.605Z,12.30
2024-02-03T08:25:47.054Z,12.30
2024-02-03T08:28:14.443Z,12.50
2024-02-03T08:30:42.857Z,12.60
2024-02-03T08:33:13.817Z,12.70
2024-02-03T08:35:42.045Z,12.70
2024-02-03T08:38:09.571Z,12.80
2024-02-03T08:40:36.983Z,12.80
2024-02-03T08:43:05.827Z,12.90
2024-02-03T08:45:33.366Z,13.10
2024-02-03T08:48:00.782Z,13.20
2024-02-03T08:50:28.465Z,13.30
2024-02-03T08:52:55.806Z,13.30
2024-02-03T08:55:23.653Z,13.50
2024-02-03T08:57:51.429Z,13.70
2024-02-03T09:00:19.467Z,13.90
2024-02-03T09:02:46.622Z,14.00
2024-02-03T09:05:13.983Z,14.20
2024-02-03T09:07:41.511Z,14.40
2024-02-03T09:10:09.329Z,14.50
2024-02-03T09:12:36.713Z,14.60
2024-02-03T09:15:04.966Z,14.80
2024-02-03T09:17:32.210Z,14.80
2024-02-03T09:19:59.613Z,14.80
2024-02-03T09:22:27.289Z,15.00
2024-02-03T09:24:54.685Z,15.10
2024-02-03T09:27:22.151Z,15.20
2024-02-03T09:29:49.641Z,15.40
2024-02-03T09:32:16.971Z,15.70
2024-02-03T09:34:50.960Z,15.80
2024-02-03T09:39:48.965Z,15.80
2024-02-03T09:42:18.165Z,15.80
2024-02-03T09:44:46.453Z,15.80
2024-02-03T09:47:15.689Z,15.70
2024-02-03T09:49:44.775Z,15.80
2024-02-03T09:52:18.382Z,15.80
2024-02-03T09:54:50.247Z,15.90
2024-02-03T09:57:18.098Z,16.20
2024-02-03T09:59:52.251Z,16.30
2024-02-03T10:02:20.001Z,16.30
2024-02-03T10:04:47.453Z,16.50
2024-02-03T10:07:19.759Z,16.60
2024-02-03T10:12:25.737Z,16.50
2024-02-03T10:15:09.676Z,16.60
2024-02-03T10:17:37.417Z,16.80
2024-02-03T10:20:08.691Z,16.80
2024-02-03T10:22:38.538Z,16.60
2024-02-03T10:25:12.793Z,16.70
2024-02-03T10:27:42.754Z,16.10
2024-02-03T10:30:10.670Z,16.20
2024-02-03T10:32:38.287Z,16.20
2024-02-03T10:35:06.084Z,16.40
2024-02-03T10:37:33.562Z,16.40
2024-02-03T10:40:01.538Z,16.50
2024-02-03T10:42:35.576Z,16.50
2024-02-03T10:45:07.388Z,16.50
2024-02-03T10:47:39.937Z,16.50
2024-02-03T10:50:11.471Z,16.80
2024-02-03T10:52:40.930Z,17.10
2024-02-03T10:55:12.316Z,17.30
2024-02-03T10:57:41.658Z,17.50
2024-02-03T11:00:10.601Z,17.30
2024-02-03T11:02:38.021Z,17.30
2024-02-03T11:05:05.746Z,17.40
2024-02-03T11:07:33.295Z,17.40
2024-02-03T11:10:05.133Z,17.50
2024-02-03T11:12:36.782Z,17.60
2024-02-03T11:15:10.921Z,17.80
2024-02-03T11:17:38.817Z,18.30
2024-02-03T11:20:08.131Z,18.90
2024-02-03T11:22:42.208Z,18.90
2024-02-03T11:25:10.992Z,19.40
2024-02-03T11:27:38.268Z,19.80
2024-02-03T11:30:09.797Z,20.20
2024-02-03T11:32:37.198Z,20.50
2024-02-03T11:35:05.688Z,20.80
2024-02-03T11:37:33.098Z,21.50
2024-02-03T11:40:12.744Z,22.00
2024-02-03T11:42:43.245Z,22.40
2024-02-03T11:45:17.671Z,22.80
2024-02-03T11:47:45.215Z,23.20
2024-02-03T11:50:12.471Z,23.30
2024-02-03T11:52:46.693Z,23.70
2024-02-03T11:55:14.239Z,23.80
2024-02-03T11:57:43.524Z,24.00
2024-02-03T12:00:11.707Z,23.80
2024-02-03T12:02:38.990Z,24.20
2024-02-03T12:05:08.271Z,24.70
2024-02-03T12:07:37.089Z,24.80
2024-02-03T12:10:05.459Z,24.50
2024-02-03T12:12:36.237Z,24.70
2024-02-03T12:15:04.252Z,24.90
2024-02-03T12:17:31.592Z,25.30
2024-02-03T12:19:59.233Z,25.50
2024-02-03T12:22:26.612Z,25.30
2024-02-03T12:24:54.192Z,24.80
2024-02-03T12:27:24.516Z,24.90
2024-02-03T12:29:52.022Z,24.70
2024-02-03T12:32:19.284Z,24.50
2024-02-03T12:34:46.845Z,24.30
2024-02-03T12:37:14.265Z,24.60
2024-02-03T12:39:41.546Z,24.80
2024-02-03T12:42:10.218Z,24.90
2024-02-03T12:44:37.501Z,24.10
2024-02-03T12:47:06.247Z,23.80
2024-02-03T12:49:33.727Z,23.80
2024-02-03T12:52:01.221Z,23.90
2024-02-03T12:54:28.678Z,24.00
2024-02-03T12:56:56.066Z,24.30
2024-02-03T12:59:23.273Z,24.40
2024-02-03T13:01:50.568Z,24.50
2024-02-03T13:04:17.763Z,24.10
2024-02-03T13:06:45.164Z,24.00
2024-02-03T13:09:13.187Z,23.60
2024-02-03T13:11:40.546Z,23.60
2024-02-03T13:14:08.279Z,24.00
2024-02-03T13:16:35.566Z,23.90
2024-02-03T13:19:02.955Z,23.40
2024-02-03T13:21:30.371Z,23.00
2024-02-03T13:23:57.596Z,22.00
2024-02-03T13:26:24.919Z,21.10
2024-02-03T13:28:52.396Z,20.60
2024-02-03T13:31:24.768Z,20.10
2024-02-03T13:33:52.327Z,19.40
2024-02-03T13:36:21.464Z,19.00
2024-02-03T13:38:49.637Z,18.70
2024-02-03T13:41:16.818Z,18.50
2024-02-03T13:43:44.159Z,18.30
2024-02-03T13:46:13.985Z,18.20
2024-02-03T13:48:41.684Z,17.90
2024-02-03T13:51:10.166Z,17.60
2024-02-03T13:53:37.792Z,17.40
2024-02-03T13:56:08.532Z,17.40
2024-02-03T13:58:39.282Z,17.40
2024-02-03T14:01:06.795Z,17.30
2024-02-03T14:03:34.170Z,17.10
2024-02-03T14:06:01.659Z,17.10
2024-02-03T14:08:28.908Z,17.10
2024-02-03T14:10:56.354Z,17.20
2024-02-03T14:13:23.587Z,17.10
2024-02-03T14:15:51.006Z,17.00
2024-02-03T14:18:18.267Z,17.10
2024-02-03T14:20:45.686Z,16.90
2024-02-03T14:23:12.920Z,16.80
2024-02-03T14:25:40.529Z,16.80
2024-02-03T14:28:07.970Z,16.80
2024-02-03T14:30:36.017Z,16.80
2024-02-03T14:33:07.571Z,16.70
2024-02-03T14:35:38.673Z,16.70
2024-02-03T14:38:06.252Z,16.70
2024-02-03T14:40:33.611Z,16.60
2024-02-03T14:43:00.855Z,16.60
2024-02-03T14:45:29.165Z,16.60
2024-02-03T14:47:57.221Z,16.50
2024-02-03T14:50:26.916Z,16.50
2024-02-03T14:52:54.348Z,16.50
2024-02-03T14:55:21.597Z,16.50
2024-02-03T14:57:48.881Z,16.50
2024-02-03T15:00:16.902Z,16.50
2024-02-03T15:02:44.335Z,16.50
2024-02-03T15:05:11.788Z,16.50
2024-02-03T15:07:39.132Z,16.50
2024-02-03T15:10:07.437Z,16.50
2024-02-03T15:12:37.717Z,16.40
2024-02-03T15:15:05.443Z,16.30
2024-02-03T15:17:33.136Z,16.30
2024-02-03T15:20:00.926Z,16.30
2024-02-03T15:22:28.331Z,16.20
2024-02-03T15:24:55.706Z,16.20
2024-02-03T15:27:23.046Z,16.20
2024-02-03T15:29:50.354Z,16.10
2024-02-03T15:32:20.983Z,16.00
2024-02-03T15:34:48.641Z,16.00
2024-02-03T15:37:17.117Z,15.90
2024-02-03T15:39:44.767Z,15.90
2024-02-03T15:42:12.222Z,15.80
2024-02-03T15:44:45.587Z,15.80
2024-02-03T15:47:14.373Z,15.80
2024-02-03T15:49:42.279Z,15.70
2024-02-03T15:52:09.705Z,15.60
2024-02-03T15:54:36.990Z,15.50
2024-02-03T15:57:04.881Z,15.40
2024-02-03T15:59:32.524Z,15.40
2024-02-03T16:01:59.892Z,15.30
2024-02-03T16:04:27.249Z,15.20
2024-02-03T16:06:54.696Z,15.20
2024-02-03T16:09:22.923Z,15.10
2024-02-03T16:11:50.879Z,15.00
2024-02-03T16:14:18.799Z,15.00
2024-02-03T16:16:46.460Z,14.90
2024-02-03T16:19:14.013Z,14.70
2024-02-03T16:21:41.576Z,14.70
2024-02-03T16:24:11.949Z,14.60
2024-02-03T16:26:39.277Z,14.60
2024-02-03T16:29:06.499Z,14.50
2024-02-03T16:31:33.915Z,14.40
2024-02-03T16:34:01.255Z,14.40
2024-02-03T16:36:29.313Z,14.40
2024-02-03T16:38:56.637Z,14.30
2024-02-03T16:41:24.822Z,14.30
2024-02-03T16:43:52.008Z,14.20
2024-02-03T16:46:20.445Z,14.20
2024-02-03T16:48:47.715Z,14.20
2024-02-03T16:51:15.156Z,14.20
2024-02-03T16:53:42.435Z,14.10
2024-02-03T16:56:09.808Z,14.10
2024-02-03T16:58:37.147Z,14.00
2024-02-03T17:01:05.985Z,14.00
2024-02-03T17:03:33.665Z,14.00
2024-02-03T17:06:01.268Z,14.10
2024-02-03T17:08:28.565Z,14.10
2024-02-03T17:10:55.756Z,14.10
2024-02-03T17:13:27.752Z,14.00
2024-02-03T17:15:58.181Z,13.90
2024-02-03T17:18:26.376Z,13.80
2024-02-03T17:20:53.871Z,13.70
2024-02-03T17:23:23.914Z,13.70
2024-02-03T17:25:51.316Z,13.70
2024-02-03T17:28:20.118Z,13.70
2024-02-03T17:30:47.632Z,13.70
2024-02-03T17:33:15.591Z,13.70
2024-02-03T17:35:43.350Z,13.60
2024-02-03T17:38:10.761Z,13.60
2024-02-03T17:40:38.235Z,13.60
2024-02-03T17:43:05.607Z,13.60
2024-02-03T17:45:33.360Z,13.60
2024-02-03T17:48:00.737Z,13.50
2024-02-03T17:50:29.184Z,13.50
2024-02-03T17:52:56.436Z,13.40
2024-02-03T17:55:23.786Z,13.40
2024-02-03T17:57:51.278Z,13.30
2024-02-03T18:00:19.222Z,13.30
2024-02-03T18:02:47.172Z,13.20
2024-02-03T18:05:14.707Z,13.20
2024-02-03T18:07:42.005Z,13.20
2024-02-03T18:10:09.949Z,13.20
2024-02-03T18:12:37.384Z,13.20
2024-02-03T18:15:05.066Z,13.10
2024-02-03T18:17:36.339Z,13.10
2024-02-03T18:20:04.150Z,13.10
2024-02-03T18:22:35.627Z,13.00
2024-02-03T18:25:03.525Z,13.00
2024-02-03T18:27:30.961Z,12.90
2024-02-03T18:29:58.556Z,12.90
2024-02-03T18:32:26.364Z,12.90
2024-02-03T18:34:53.721Z,12.90
2024-02-03T18:37:21.204Z,12.80
2024-02-03T18:39:53.756Z,12.80
2024-02-03T18:42:21.933Z,12.80
2024-02-03T18:44:49.378Z,12.90
2024-02-03T18:47:16.778Z,12.90
2024-02-03T18:49:44.043Z,12.90
2024-02-03T18:52:11.450Z,12.80
2024-02-03T18:54:38.729Z,12.80
2024-02-03T18:57:06.333Z,12.80
2024-02-03T18:59:33.606Z,12.70
2024-02-03T19:02:00.972Z,12.70
2024-02-03T19:04:28.350Z,12.60
2024-02-03T19:06:56.377Z,12.50
2024-02-03T19:09:24.895Z,12.60
2024-02-03T19:11:52.206Z,12.60
2024-02-03T19:14:22.534Z,12.60
2024-02-03T19:16:49.968Z,12.60
2024-02-03T19:19:17.375Z,12.50
2024-02-03T19:21:45.002Z,12.50
2024-02-03T19:24:12.502Z,12.50
2024-02-03T19:26:39.811Z,12.40
2024-02-03T19:29:07.786Z,12.40
2024-02-03T19:31:34.988Z,12.40
2024-02-03T19:34:03.588Z,12.30
2024-02-03T19:36:31.091Z,12.30
2024-02-03T19:38:58.422Z,12.30
2024-02-03T19:41:25.856Z,12.20
2024-02-03T19:43:53.475Z,12.20
2024-02-03T19:46:23.452Z,12.20
2024-02-03T19:48:50.999Z,12.20
2024-02-03T19:51:19.210Z,12.10
2024-02-03T19:53:46.540Z,12.10
2024-02-03T19:56:13.802Z,12.00
2024-02-03T19:58:41.287Z,12.00
2024-02-03T20:01:09.105Z,12.00
2024-02-03T20:03:36.791Z,11.90
2024-02-03T20:06:04.276Z,11.90
2024-02-03T20:08:31.797Z,11.90
2024-02-03T20:10:59.450Z,11.90
2024-02-03T20:13:27.874Z,11.90
2024-02-03T20:15:57.729Z,11.90
2024-02-03T20:18:25.393Z,11.90
2024-02-03T20:20:53.719Z,11.80
2024-02-03T20:23:21.332Z,11.80
2024-02-03T20:25:48.715Z,11.80
2024-02-03T20:28:20.503Z,11.70
2024-02-03T20:30:50.505Z,11.70
2024-02-03T20:33:18.577Z,11.70
2024-02-03T20:35:46.420Z,11.70
2024-02-03T20:38:14.010Z,11.70
2024-02-03T20:40:44.699Z,11.60
2024-02-03T20:43:15.320Z,11.60
2024-02-03T20:45:47.570Z,11.60
2024-02-03T20:48:15.136Z,11.60
2024-02-03T20:50:44.889Z,11.50
2024-02-03T20:53:12.763Z,11.50
2024-02-03T20:55:40.311Z,11.50
2024-02-03T20:58:07.895Z,11.40
2024-02-03T21:00:36.507Z,11.40
2024-02-03T21:03:04.596Z,11.50
2024-02-03T21:05:32.296Z,11.50
2024-02-03T21:08:06.574Z,11.50
2024-02-03T21:10:34.502Z,11.40
2024-02-03T21:13:04.223Z,11.40
2024-02-03T21:15:32.902Z,11.40
2024-02-03T21:18:01.836Z,11.40
2024-02-03T21:20:29.308Z,11.40
2024-02-03T21:22:56.912Z,11.30
2024-02-03T21:25:25.018Z,11.30
2024-02-03T21:27:55.541Z,11.30
2024-02-03T21:30:23.589Z,11.30
2024-02-03T21:32:53.240Z,11.40
2024-02-03T21:35:21.758Z,11.40
2024-02-03T21:37:49.367Z,11.40
2024-02-03T21:40:16.860Z,11.40
2024-02-03T21:42:44.262Z,11.30
2024-02-03T21:45:14.976Z,11.30
2024-02-03T21:47:42.478Z,11.20
2024-02-03T21:50:10.291Z,11.20
2024-02-03T21:52:39.050Z,11.20
2024-02-03T21:55:06.831Z,11.10
2024-02-03T21:57:34.393Z,11.10
2024-02-03T22:00:05.631Z,11.10
2024-02-03T22:02:39.510Z,11.10
2024-02-03T22:05:08.937Z,11.10
2024-02-03T22:07:36.644Z,11.00
2024-02-03T22:10:04.846Z,11.10
2024-02-03T22:12:32.703Z,11.10
2024-02-03T22:15:00.206Z,11.20
2024-02-03T22:17:27.675Z,11.20
2024-02-03T22:19:55.340Z,11.10
2024-02-03T22:22:23.072Z,11.10
2024-02-03T22:24:50.713Z,11.10
2024-02-03T22:27:18.212Z,11.00
2024-02-03T22:29:45.621Z,11.00
2024-02-03T22:32:13.206Z,10.90
2024-02-03T22:34:41.001Z,10.90
2024-02-03T22:37:08.518Z,10.80
2024-02-03T22:39:35.987Z,10.80
2024-02-03T22:42:03.593Z,10.80
2024-02-03T22:44:30.832Z,10.90
2024-02-03T22:46:58.254Z,10.90
2024-02-03T22:49:25.938Z,10.90
2024-02-03T22:51:54.655Z,10.90
2024-02-03T22:54:22.076Z,10.80
2024-02-03T22:56:49.380Z,10.80
2024-02-03T22:59:16.735Z,10.70
2024-02-03T23:01:44.229Z,10.70
2024-02-03T23:04:13.333Z,10.70
2024-02-03T23:06:40.760Z,10.70
2024-02-03T23:09:09.149Z,10.60
2024-02-03T23:11:38.217Z,10.50
2024-02-03T23:14:05.518Z,10.50
2024-02-03T23:16:32.859Z,10.40
2024-02-03T23:19:00.182Z,10.30
2024-02-03T23:21:28.817Z,10.20
2024-02-03T23:23:56.328Z,10.20
2024-02-03T23:26:23.742Z,10.10
2024-02-03T23:28:50.947Z,10.10
2024-02-03T23:31:18.275Z,10.10
2024-02-03T23:33:46.866Z,10.20
2024-02-03T23:36:15.435Z,10.40
2024-02-03T23:38:42.798Z,10.50
2024-02-03T23:41:10.066Z,10.40
2024-02-03T23:43:38.811Z,10.40
2024-02-03T23:46:06.122Z,10.30
2024-02-03T23:48:33.633Z,10.30
2024-02-03T23:51:00.903Z,10.30
2024-02-03T23:53:28.322Z,10.30
2024-02-03T23:55:55.561Z,10.20
2024-02-03T23:58:23.102Z,10.40
